Terminal Aerodrome Forecast
Issued by NWS

Home | Current Version | Previous Version | Text Only | Print | Product List | Glossary On
Versions: 1 2 3 4 5 6 7 8 9 10 11 12 13 14 15
000
FTUS46 KSGX 062320
TAFONT
TAF
KONT 062320Z 0700/0806 26011KT P6SM SCT040 BKN050
     FM070400 25008KT P6SM SCT030 OVC045
     FM070900 25005KT P6SM OVC025
     FM071700 26006KT P6SM SCT025 OVC035
     FM072100 27012KT P6SM SCT030 OVC045
     FM080400 24007KT P6SM BKN030 OVC045=

USA.gov is the U.S. government's official web portal to all federal, state and local government web resources and services.